sensor_id;sensor_type;location;lat;lon;timestamp;P1;P2;P0
60816;PMS5003;51921;51.518;-3.188;2023-08-31T00:01:54;5;5;
60816;PMS5003;51921;51.518;-3.188;2023-08-31T00:04:20;6;6;
60816;PMS5003;51921;51.518;-3.188;2023-08-31T00:06:45;8;8;
60816;PMS5003;51921;51.518;-3.188;2023-08-31T00:09:10;10;9;
60816;PMS5003;51921;51.518;-3.188;2023-08-31T00:11:36;10;8;
60816;PMS5003;51921;51.518;-3.188;2023-08-31T00:14:01;7;6;
60816;PMS5003;51921;51.518;-3.188;2023-08-31T00:16:27;6;6;
60816;PMS5003;51921;51.518;-3.188;2023-08-31T00:18:52;9;8;
60816;PMS5003;51921;51.518;-3.188;2023-08-31T00:21:17;7;7;
60816;PMS5003;51921;51.518;-3.188;2023-08-31T00:23:43;7;6;
60816;PMS5003;51921;51.518;-3.188;2023-08-31T00:26:08;7;6;
60816;PMS5003;51921;51.518;-3.188;2023-08-31T00:28:34;7;7;
60816;PMS5003;51921;51.518;-3.188;2023-08-31T00:31:00;7;6;
60816;PMS5003;51921;51.518;-3.188;2023-08-31T00:33:25;7;7;
60816;PMS5003;51921;51.518;-3.188;2023-08-31T00:35:50;5;5;
60816;PMS5003;51921;51.518;-3.188;2023-08-31T00:38:15;6;5;
60816;PMS5003;51921;51.518;-3.188;2023-08-31T00:40:41;4;4;
60816;PMS5003;51921;51.518;-3.188;2023-08-31T00:43:06;6;6;
60816;PMS5003;51921;51.518;-3.188;2023-08-31T00:45:31;7;5;
60816;PMS5003;51921;51.518;-3.188;2023-08-31T00:47:57;5;5;
60816;PMS5003;51921;51.518;-3.188;2023-08-31T00:50:22;6;6;
60816;PMS5003;51921;51.518;-3.188;2023-08-31T00:52:48;7;7;
60816;PMS5003;51921;51.518;-3.188;2023-08-31T00:55:13;6;5;
60816;PMS5003;51921;51.518;-3.188;2023-08-31T00:57:38;5;5;
60816;PMS5003;51921;51.518;-3.188;2023-08-31T01:00:04;7;7;
60816;PMS5003;51921;51.518;-3.188;2023-08-31T01:02:30;5;5;
60816;PMS5003;51921;51.518;-3.188;2023-08-31T01:04:55;6;6;
60816;PMS5003;51921;51.518;-3.188;2023-08-31T01:07:22;7;6;
60816;PMS5003;51921;51.518;-3.188;2023-08-31T01:09:47;7;7;
60816;PMS5003;51921;51.518;-3.188;2023-08-31T01:12:11;10;7;
60816;PMS5003;51921;51.518;-3.188;2023-08-31T01:14:39;8;8;
60816;PMS5003;51921;51.518;-3.188;2023-08-31T01:17:02;9;9;
60816;PMS5003;51921;51.518;-3.188;2023-08-31T01:19:31;8;8;
60816;PMS5003;51921;51.518;-3.188;2023-08-31T01:21:52;9;8;
60816;PMS5003;51921;51.518;-3.188;2023-08-31T01:24:18;6;6;
60816;PMS5003;51921;51.518;-3.188;2023-08-31T01:26:43;12;12;
60816;PMS5003;51921;51.518;-3.188;2023-08-31T01:29:09;15;14;
60816;PMS5003;51921;51.518;-3.188;2023-08-31T01:34:00;13;11;
60816;PMS5003;51921;51.518;-3.188;2023-08-31T01:36:26;11;10;
60816;PMS5003;51921;51.518;-3.188;2023-08-31T01:38:52;7;6;
60816;PMS5003;51921;51.518;-3.188;2023-08-31T01:41:17;6;6;
60816;PMS5003;51921;51.518;-3.188;2023-08-31T01:43:41;6;6;
60816;PMS5003;51921;51.518;-3.188;2023-08-31T01:46:07;4;4;
60816;PMS5003;51921;51.518;-3.188;2023-08-31T01:50:58;6;6;
60816;PMS5003;51921;51.518;-3.188;2023-08-31T01:53:23;5;4;
60816;PMS5003;51921;51.518;-3.188;2023-08-31T01:55:48;4;4;
60816;PMS5003;51921;51.518;-3.188;2023-08-31T01:58:13;5;5;
60816;PMS5003;51921;51.518;-3.188;2023-08-31T02:00:39;5;5;
60816;PMS5003;51921;51.518;-3.188;2023-08-31T02:03:04;6;6;
60816;PMS5003;51921;51.518;-3.188;2023-08-31T02:05:30;9;8;
60816;PMS5003;51921;51.518;-3.188;2023-08-31T02:07:55;5;5;
60816;PMS5003;51921;51.518;-3.188;2023-08-31T02:10:20;8;7;
60816;PMS5003;51921;51.518;-3.188;2023-08-31T02:12:46;8;7;
60816;PMS5003;51921;51.518;-3.188;2023-08-31T02:15:11;7;7;
60816;PMS5003;51921;51.518;-3.188;2023-08-31T02:17:37;7;7;
60816;PMS5003;51921;51.518;-3.188;2023-08-31T02:20:02;7;7;
60816;PMS5003;51921;51.518;-3.188;2023-08-31T02:22:29;6;6;
60816;PMS5003;51921;51.518;-3.188;2023-08-31T02:24:53;7;6;
60816;PMS5003;51921;51.518;-3.188;2023-08-31T02:27:19;7;7;
60816;PMS5003;51921;51.518;-3.188;2023-08-31T02:29:44;7;6;
60816;PMS5003;51921;51.518;-3.188;2023-08-31T02:32:09;6;6;
60816;PMS5003;51921;51.518;-3.188;2023-08-31T02:34:35;6;4;
60816;PMS5003;51921;51.518;-3.188;2023-08-31T02:37:00;6;6;
60816;PMS5003;51921;51.518;-3.188;2023-08-31T02:39:26;4;4;
60816;PMS5003;51921;51.518;-3.188;2023-08-31T02:41:51;5;5;
60816;PMS5003;51921;51.518;-3.188;2023-08-31T02:44:17;4;4;
60816;PMS5003;51921;51.518;-3.188;2023-08-31T02:46:42;5;5;
60816;PMS5003;51921;51.518;-3.188;2023-08-31T02:49:07;6;6;
60816;PMS5003;51921;51.518;-3.188;2023-08-31T02:51:33;3;3;
60816;PMS5003;51921;51.518;-3.188;2023-08-31T02:53:58;4;4;
60816;PMS5003;51921;51.518;-3.188;2023-08-31T02:56:24;3;3;
60816;PMS5003;51921;51.518;-3.188;2023-08-31T02:58:49;4;4;
60816;PMS5003;51921;51.518;-3.188;2023-08-31T03:01:14;5;5;
60816;PMS5003;51921;51.518;-3.188;2023-08-31T03:03:40;8;8;
60816;PMS5003;51921;51.518;-3.188;2023-08-31T03:06:06;5;4;
60816;PMS5003;51921;51.518;-3.188;2023-08-31T03:08:31;5;5;
60816;PMS5003;51921;51.518;-3.188;2023-08-31T03:10:56;7;6;
60816;PMS5003;51921;51.518;-3.188;2023-08-31T03:13:22;4;4;
60816;PMS5003;51921;51.518;-3.188;2023-08-31T03:15:47;6;5;
60816;PMS5003;51921;51.518;-3.188;2023-08-31T03:18:12;5;4;
60816;PMS5003;51921;51.518;-3.188;2023-08-31T03:20:38;6;6;
60816;PMS5003;51921;51.518;-3.188;2023-08-31T03:23:03;6;6;
60816;PMS5003;51921;51.518;-3.188;2023-08-31T03:25:29;5;5;
60816;PMS5003;51921;51.518;-3.188;2023-08-31T03:27:54;4;4;
60816;PMS5003;51921;51.518;-3.188;2023-08-31T03:30:20;5;4;
60816;PMS5003;51921;51.518;-3.188;2023-08-31T03:32:45;5;5;
60816;PMS5003;51921;51.518;-3.188;2023-08-31T03:35:11;5;4;
60816;PMS5003;51921;51.518;-3.188;2023-08-31T03:37:36;4;4;
60816;PMS5003;51921;51.518;-3.188;2023-08-31T03:40:02;4;4;
60816;PMS5003;51921;51.518;-3.188;2023-08-31T03:42:27;5;5;
60816;PMS5003;51921;51.518;-3.188;2023-08-31T03:44:52;3;3;
60816;PMS5003;51921;51.518;-3.188;2023-08-31T03:47:18;4;3;
60816;PMS5003;51921;51.518;-3.188;2023-08-31T03:49:43;7;6;
60816;PMS5003;51921;51.518;-3.188;2023-08-31T03:52:09;4;4;
60816;PMS5003;51921;51.518;-3.188;2023-08-31T03:54:34;5;5;
60816;PMS5003;51921;51.518;-3.188;2023-08-31T03:57:00;7;7;
60816;PMS5003;51921;51.518;-3.188;2023-08-31T03:59:25;6;6;
60816;PMS5003;51921;51.518;-3.188;2023-08-31T04:01:51;5;5;
60816;PMS5003;51921;51.518;-3.188;2023-08-31T04:04:16;10;7;
60816;PMS5003;51921;51.518;-3.188;2023-08-31T04:06:41;4;4;
60816;PMS5003;51921;51.518;-3.188;2023-08-31T04:09:07;5;5;
60816;PMS5003;51921;51.518;-3.188;2023-08-31T04:11:32;4;4;
60816;PMS5003;51921;51.518;-3.188;2023-08-31T04:13:58;6;6;
60816;PMS5003;51921;51.518;-3.188;2023-08-31T04:16:23;5;5;
60816;PMS5003;51921;51.518;-3.188;2023-08-31T04:18:49;6;5;
60816;PMS5003;51921;51.518;-3.188;2023-08-31T04:21:14;6;6;
60816;PMS5003;51921;51.518;-3.188;2023-08-31T04:23:40;5;5;
60816;PMS5003;51921;51.518;-3.188;2023-08-31T04:26:10;3;3;
60816;PMS5003;51921;51.518;-3.188;2023-08-31T04:28:30;4;4;
60816;PMS5003;51921;51.518;-3.188;2023-08-31T04:30:56;3;3;
60816;PMS5003;51921;51.518;-3.188;2023-08-31T04:33:22;2;2;
60816;PMS5003;51921;51.518;-3.188;2023-08-31T04:35:47;4;4;
60816;PMS5003;51921;51.518;-3.188;2023-08-31T04:38:12;4;3;
60816;PMS5003;51921;51.518;-3.188;2023-08-31T04:40:38;4;4;
60816;PMS5003;51921;51.518;-3.188;2023-08-31T04:43:03;5;5;
60816;PMS5003;51921;51.518;-3.188;2023-08-31T04:45:29;5;5;
60816;PMS5003;51921;51.518;-3.188;2023-08-31T04:47:54;3;3;
60816;PMS5003;51921;51.518;-3.188;2023-08-31T04:50:19;5;5;
60816;PMS5003;51921;51.518;-3.188;2023-08-31T04:52:45;6;5;
60816;PMS5003;51921;51.518;-3.188;2023-08-31T04:55:12;5;4;
60816;PMS5003;51921;51.518;-3.188;2023-08-31T04:57:36;4;4;
60816;PMS5003;51921;51.518;-3.188;2023-08-31T05:00:02;5;4;
60816;PMS5003;51921;51.518;-3.188;2023-08-31T05:02:27;5;4;
60816;PMS5003;51921;51.518;-3.188;2023-08-31T05:04:52;4;3;
60816;PMS5003;51921;51.518;-3.188;2023-08-31T05:07:18;3;3;
60816;PMS5003;51921;51.518;-3.188;2023-08-31T05:09:43;5;5;
60816;PMS5003;51921;51.518;-3.188;2023-08-31T05:12:09;4;4;
60816;PMS5003;51921;51.518;-3.188;2023-08-31T05:14:34;6;6;
60816;PMS5003;51921;51.518;-3.188;2023-08-31T05:17:00;6;5;
60816;PMS5003;51921;51.518;-3.188;2023-08-31T05:19:25;5;5;
60816;PMS5003;51921;51.518;-3.188;2023-08-31T05:21:51;5;5;
60816;PMS5003;51921;51.518;-3.188;2023-08-31T05:24:16;6;6;
60816;PMS5003;51921;51.518;-3.188;2023-08-31T05:26:42;6;6;
60816;PMS5003;51921;51.518;-3.188;2023-08-31T05:29:07;5;5;
60816;PMS5003;51921;51.518;-3.188;2023-08-31T05:31:33;5;5;
60816;PMS5003;51921;51.518;-3.188;2023-08-31T05:33:58;6;6;
60816;PMS5003;51921;51.518;-3.188;2023-08-31T05:36:24;7;7;
60816;PMS5003;51921;51.518;-3.188;2023-08-31T05:38:50;7;7;
60816;PMS5003;51921;51.518;-3.188;2023-08-31T05:41:14;4;4;
60816;PMS5003;51921;51.518;-3.188;2023-08-31T05:43:40;5;5;
60816;PMS5003;51921;51.518;-3.188;2023-08-31T05:46:05;6;6;
60816;PMS5003;51921;51.518;-3.188;2023-08-31T05:48:31;6;6;
60816;PMS5003;51921;51.518;-3.188;2023-08-31T05:50:56;6;6;
60816;PMS5003;51921;51.518;-3.188;2023-08-31T05:53:22;6;5;
60816;PMS5003;51921;51.518;-3.188;2023-08-31T05:55:47;5;5;
60816;PMS5003;51921;51.518;-3.188;2023-08-31T05:58:13;8;6;
60816;PMS5003;51921;51.518;-3.188;2023-08-31T06:00:38;6;6;
60816;PMS5003;51921;51.518;-3.188;2023-08-31T06:03:04;6;6;
60816;PMS5003;51921;51.518;-3.188;2023-08-31T06:05:29;8;7;
60816;PMS5003;51921;51.518;-3.188;2023-08-31T06:07:55;5;3;
60816;PMS5003;51921;51.518;-3.188;2023-08-31T06:10:21;6;6;
60816;PMS5003;51921;51.518;-3.188;2023-08-31T06:12:46;7;7;
60816;PMS5003;51921;51.518;-3.188;2023-08-31T06:15:11;4;4;
60816;PMS5003;51921;51.518;-3.188;2023-08-31T06:17:37;6;6;
60816;PMS5003;51921;51.518;-3.188;2023-08-31T06:20:02;8;7;
60816;PMS5003;51921;51.518;-3.188;2023-08-31T06:22:28;7;7;
60816;PMS5003;51921;51.518;-3.188;2023-08-31T06:24:53;5;5;
60816;PMS5003;51921;51.518;-3.188;2023-08-31T06:27:19;10;7;
60816;PMS5003;51921;51.518;-3.188;2023-08-31T06:29:44;7;6;
60816;PMS5003;51921;51.518;-3.188;2023-08-31T06:32:10;8;8;
60816;PMS5003;51921;51.518;-3.188;2023-08-31T06:34:35;9;8;
60816;PMS5003;51921;51.518;-3.188;2023-08-31T06:37:01;7;7;
60816;PMS5003;51921;51.518;-3.188;2023-08-31T06:39:26;10;10;
60816;PMS5003;51921;51.518;-3.188;2023-08-31T06:41:51;8;8;
60816;PMS5003;51921;51.518;-3.188;2023-08-31T06:44:17;7;7;
60816;PMS5003;51921;51.518;-3.188;2023-08-31T06:46:42;11;10;
60816;PMS5003;51921;51.518;-3.188;2023-08-31T06:49:08;9;9;
60816;PMS5003;51921;51.518;-3.188;2023-08-31T06:51:33;8;7;
60816;PMS5003;51921;51.518;-3.188;2023-08-31T06:53:59;7;7;
60816;PMS5003;51921;51.518;-3.188;2023-08-31T06:56:24;9;8;
60816;PMS5003;51921;51.518;-3.188;2023-08-31T06:58:50;9;8;
60816;PMS5003;51921;51.518;-3.188;2023-08-31T07:01:15;8;8;
60816;PMS5003;51921;51.518;-3.188;2023-08-31T07:03:41;9;8;
60816;PMS5003;51921;51.518;-3.188;2023-08-31T07:06:06;9;8;
60816;PMS5003;51921;51.518;-3.188;2023-08-31T07:08:32;10;10;
60816;PMS5003;51921;51.518;-3.188;2023-08-31T07:10:57;10;9;
60816;PMS5003;51921;51.518;-3.188;2023-08-31T07:13:22;10;9;
60816;PMS5003;51921;51.518;-3.188;2023-08-31T07:15:48;11;11;
60816;PMS5003;51921;51.518;-3.188;2023-08-31T07:18:13;10;10;
60816;PMS5003;51921;51.518;-3.188;2023-08-31T07:20:39;9;9;
60816;PMS5003;51921;51.518;-3.188;2023-08-31T07:23:04;10;10;
60816;PMS5003;51921;51.518;-3.188;2023-08-31T07:25:29;9;8;
60816;PMS5003;51921;51.518;-3.188;2023-08-31T07:27:55;6;6;
60816;PMS5003;51921;51.518;-3.188;2023-08-31T07:30:20;5;5;
60816;PMS5003;51921;51.518;-3.188;2023-08-31T07:32:46;4;4;
60816;PMS5003;51921;51.518;-3.188;2023-08-31T07:35:11;3;2;
60816;PMS5003;51921;51.518;-3.188;2023-08-31T07:37:37;9;7;
60816;PMS5003;51921;51.518;-3.188;2023-08-31T07:40:02;8;8;
60816;PMS5003;51921;51.518;-3.188;2023-08-31T07:42:27;4;4;
60816;PMS5003;51921;51.518;-3.188;2023-08-31T07:44:53;3;3;
60816;PMS5003;51921;51.518;-3.188;2023-08-31T07:47:18;4;4;
60816;PMS5003;51921;51.518;-3.188;2023-08-31T07:49:44;6;5;
60816;PMS5003;51921;51.518;-3.188;2023-08-31T07:52:09;5;5;
60816;PMS5003;51921;51.518;-3.188;2023-08-31T07:54:34;4;4;
60816;PMS5003;51921;51.518;-3.188;2023-08-31T07:57:00;2;2;
60816;PMS5003;51921;51.518;-3.188;2023-08-31T07:59:25;5;4;
60816;PMS5003;51921;51.518;-3.188;2023-08-31T08:01:51;2;2;
60816;PMS5003;51921;51.518;-3.188;2023-08-31T08:04:16;2;2;
60816;PMS5003;51921;51.518;-3.188;2023-08-31T08:06:42;3;2;
60816;PMS5003;51921;51.518;-3.188;2023-08-31T08:09:07;4;3;
60816;PMS5003;51921;51.518;-3.188;2023-08-31T08:11:34;5;4;
60816;PMS5003;51921;51.518;-3.188;2023-08-31T08:13:58;3;3;
60816;PMS5003;51921;51.518;-3.188;2023-08-31T08:16:24;4;4;
60816;PMS5003;51921;51.518;-3.188;2023-08-31T08:18:49;3;3;
60816;PMS5003;51921;51.518;-3.188;2023-08-31T08:21:14;6;4;
60816;PMS5003;51921;51.518;-3.188;2023-08-31T08:23:39;5;5;
60816;PMS5003;51921;51.518;-3.188;2023-08-31T08:26:05;4;3;
60816;PMS5003;51921;51.518;-3.188;2023-08-31T08:28:30;3;3;
60816;PMS5003;51921;51.518;-3.188;2023-08-31T08:30:56;5;3;
60816;PMS5003;51921;51.518;-3.188;2023-08-31T08:33:21;4;3;
60816;PMS5003;51921;51.518;-3.188;2023-08-31T08:35:47;3;3;
60816;PMS5003;51921;51.518;-3.188;2023-08-31T08:38:12;3;3;
60816;PMS5003;51921;51.518;-3.188;2023-08-31T08:40:37;4;4;
60816;PMS5003;51921;51.518;-3.188;2023-08-31T08:43:04;3;3;
60816;PMS5003;51921;51.518;-3.188;2023-08-31T08:45:30;4;4;
60816;PMS5003;51921;51.518;-3.188;2023-08-31T08:47:54;4;3;
60816;PMS5003;51921;51.518;-3.188;2023-08-31T08:50:19;6;5;
60816;PMS5003;51921;51.518;-3.188;2023-08-31T08:52:45;3;3;
60816;PMS5003;51921;51.518;-3.188;2023-08-31T08:55:10;5;5;
60816;PMS5003;51921;51.518;-3.188;2023-08-31T08:57:35;4;4;
60816;PMS5003;51921;51.518;-3.188;2023-08-31T09:00:01;3;3;
60816;PMS5003;51921;51.518;-3.188;2023-08-31T09:02:26;4;4;
60816;PMS5003;51921;51.518;-3.188;2023-08-31T09:04:52;3;3;
60816;PMS5003;51921;51.518;-3.188;2023-08-31T09:07:17;6;5;
60816;PMS5003;51921;51.518;-3.188;2023-08-31T09:12:08;3;3;
60816;PMS5003;51921;51.518;-3.188;2023-08-31T09:14:33;3;3;
60816;PMS5003;51921;51.518;-3.188;2023-08-31T09:16:59;10;7;
60816;PMS5003;51921;51.518;-3.188;2023-08-31T09:19:25;6;5;
60816;PMS5003;51921;51.518;-3.188;2023-08-31T09:21:50;6;5;
60816;PMS5003;51921;51.518;-3.188;2023-08-31T09:24:15;4;4;
60816;PMS5003;51921;51.518;-3.188;2023-08-31T09:26:43;3;3;
60816;PMS5003;51921;51.518;-3.188;2023-08-31T09:29:06;5;4;
60816;PMS5003;51921;51.518;-3.188;2023-08-31T09:31:31;3;3;
60816;PMS5003;51921;51.518;-3.188;2023-08-31T09:33:57;2;2;
60816;PMS5003;51921;51.518;-3.188;2023-08-31T09:36:22;4;4;
60816;PMS5003;51921;51.518;-3.188;2023-08-31T09:38:48;4;3;
60816;PMS5003;51921;51.518;-3.188;2023-08-31T09:41:13;3;3;
60816;PMS5003;51921;51.518;-3.188;2023-08-31T09:43:39;3;1;
60816;PMS5003;51921;51.518;-3.188;2023-08-31T09:46:04;3;3;
60816;PMS5003;51921;51.518;-3.188;2023-08-31T09:48:30;4;4;
60816;PMS5003;51921;51.518;-3.188;2023-08-31T09:50:55;2;2;
60816;PMS5003;51921;51.518;-3.188;2023-08-31T09:53:21;3;3;
60816;PMS5003;51921;51.518;-3.188;2023-08-31T09:55:46;3;3;
60816;PMS5003;51921;51.518;-3.188;2023-08-31T09:58:11;3;3;
60816;PMS5003;51921;51.518;-3.188;2023-08-31T10:00:37;4;3;
60816;PMS5003;51921;51.518;-3.188;2023-08-31T10:03:04;4;3;
60816;PMS5003;51921;51.518;-3.188;2023-08-31T10:05:28;2;2;
60816;PMS5003;51921;51.518;-3.188;2023-08-31T10:07:53;2;2;
60816;PMS5003;51921;51.518;-3.188;2023-08-31T10:10:19;3;3;
60816;PMS5003;51921;51.518;-3.188;2023-08-31T10:12:44;2;2;
60816;PMS5003;51921;51.518;-3.188;2023-08-31T10:15:10;2;2;
60816;PMS5003;51921;51.518;-3.188;2023-08-31T10:17:35;1;1;
60816;PMS5003;51921;51.518;-3.188;2023-08-31T10:20:01;0;0;
60816;PMS5003;51921;51.518;-3.188;2023-08-31T10:22:26;2;2;
60816;PMS5003;51921;51.518;-3.188;2023-08-31T10:24:57;3;3;
60816;PMS5003;51921;51.518;-3.188;2023-08-31T10:27:17;2;2;
60816;PMS5003;51921;51.518;-3.188;2023-08-31T10:29:43;3;2;
60816;PMS5003;51921;51.518;-3.188;2023-08-31T10:32:08;3;3;
60816;PMS5003;51921;51.518;-3.188;2023-08-31T10:34:34;4;4;
60816;PMS5003;51921;51.518;-3.188;2023-08-31T10:36:59;2;2;
60816;PMS5003;51921;51.518;-3.188;2023-08-31T10:39:24;3;2;
60816;PMS5003;51921;51.518;-3.188;2023-08-31T10:41:52;2;2;
60816;PMS5003;51921;51.518;-3.188;2023-08-31T10:44:21;3;3;
60816;PMS5003;51921;51.518;-3.188;2023-08-31T10:46:44;3;3;
60816;PMS5003;51921;51.518;-3.188;2023-08-31T10:51:32;1;1;
60816;PMS5003;51921;51.518;-3.188;2023-08-31T10:54:04;2;2;
60816;PMS5003;51921;51.518;-3.188;2023-08-31T10:56:28;3;2;
60816;PMS5003;51921;51.518;-3.188;2023-08-31T10:58:56;3;3;
60816;PMS5003;51921;51.518;-3.188;2023-08-31T11:01:14;1;1;
60816;PMS5003;51921;51.518;-3.188;2023-08-31T11:06:05;3;3;
60816;PMS5003;51921;51.518;-3.188;2023-08-31T11:08:30;2;2;
60816;PMS5003;51921;51.518;-3.188;2023-08-31T11:10:55;2;2;
60816;PMS5003;51921;51.518;-3.188;2023-08-31T11:13:22;0;0;
60816;PMS5003;51921;51.518;-3.188;2023-08-31T11:15:46;2;2;
60816;PMS5003;51921;51.518;-3.188;2023-08-31T11:18:11;2;1;
60816;PMS5003;51921;51.518;-3.188;2023-08-31T11:20:37;1;1;
60816;PMS5003;51921;51.518;-3.188;2023-08-31T11:23:02;3;3;
60816;PMS5003;51921;51.518;-3.188;2023-08-31T11:25:30;2;2;
60816;PMS5003;51921;51.518;-3.188;2023-08-31T11:27:54;2;2;
60816;PMS5003;51921;51.518;-3.188;2023-08-31T11:30:19;4;3;
60816;PMS5003;51921;51.518;-3.188;2023-08-31T11:32:45;2;2;
60816;PMS5003;51921;51.518;-3.188;2023-08-31T11:35:10;3;3;
60816;PMS5003;51921;51.518;-3.188;2023-08-31T11:37:35;2;2;
60816;PMS5003;51921;51.518;-3.188;2023-08-31T11:40:01;0;0;
60816;PMS5003;51921;51.518;-3.188;2023-08-31T11:42:26;2;2;
60816;PMS5003;51921;51.518;-3.188;2023-08-31T11:44:51;2;2;
60816;PMS5003;51921;51.518;-3.188;2023-08-31T11:47:17;4;3;
60816;PMS5003;51921;51.518;-3.188;2023-08-31T11:49:42;3;3;
60816;PMS5003;51921;51.518;-3.188;2023-08-31T11:52:09;4;4;
60816;PMS5003;51921;51.518;-3.188;2023-08-31T11:54:33;3;2;
60816;PMS5003;51921;51.518;-3.188;2023-08-31T11:56:59;1;1;
60816;PMS5003;51921;51.518;-3.188;2023-08-31T11:59:24;2;2;
60816;PMS5003;51921;51.518;-3.188;2023-08-31T12:01:50;3;3;
60816;PMS5003;51921;51.518;-3.188;2023-08-31T12:04:16;3;3;
60816;PMS5003;51921;51.518;-3.188;2023-08-31T12:06:41;3;3;
60816;PMS5003;51921;51.518;-3.188;2023-08-31T12:09:06;1;1;
60816;PMS5003;51921;51.518;-3.188;2023-08-31T12:11:32;3;3;
60816;PMS5003;51921;51.518;-3.188;2023-08-31T12:13:59;4;4;
60816;PMS5003;51921;51.518;-3.188;2023-08-31T12:16:23;3;3;
60816;PMS5003;51921;51.518;-3.188;2023-08-31T12:18:48;3;3;
60816;PMS5003;51921;51.518;-3.188;2023-08-31T12:21:14;4;2;
60816;PMS5003;51921;51.518;-3.188;2023-08-31T12:23:39;4;4;
60816;PMS5003;51921;51.518;-3.188;2023-08-31T12:26:05;2;2;
60816;PMS5003;51921;51.518;-3.188;2023-08-31T12:28:30;2;2;
60816;PMS5003;51921;51.518;-3.188;2023-08-31T12:30:55;3;3;
60816;PMS5003;51921;51.518;-3.188;2023-08-31T12:33:21;4;4;
60816;PMS5003;51921;51.518;-3.188;2023-08-31T12:35:46;3;3;
60816;PMS5003;51921;51.518;-3.188;2023-08-31T12:38:12;4;4;
60816;PMS5003;51921;51.518;-3.188;2023-08-31T12:40:37;3;3;
60816;PMS5003;51921;51.518;-3.188;2023-08-31T12:43:03;4;3;
60816;PMS5003;51921;51.518;-3.188;2023-08-31T12:45:28;3;3;
60816;PMS5003;51921;51.518;-3.188;2023-08-31T12:47:54;4;4;
60816;PMS5003;51921;51.518;-3.188;2023-08-31T12:50:19;5;4;
60816;PMS5003;51921;51.518;-3.188;2023-08-31T12:52:45;4;4;
60816;PMS5003;51921;51.518;-3.188;2023-08-31T12:55:10;5;5;
60816;PMS5003;51921;51.518;-3.188;2023-08-31T12:57:35;5;5;
60816;PMS5003;51921;51.518;-3.188;2023-08-31T13:00:01;3;3;
60816;PMS5003;51921;51.518;-3.188;2023-08-31T13:02:26;6;5;
60816;PMS5003;51921;51.518;-3.188;2023-08-31T13:04:52;5;4;
60816;PMS5003;51921;51.518;-3.188;2023-08-31T13:07:17;4;4;
60816;PMS5003;51921;51.518;-3.188;2023-08-31T13:09:43;4;4;
60816;PMS5003;51921;51.518;-3.188;2023-08-31T13:12:08;6;6;
60816;PMS5003;51921;51.518;-3.188;2023-08-31T13:14:34;4;4;
60816;PMS5003;51921;51.518;-3.188;2023-08-31T13:16:59;5;5;
60816;PMS5003;51921;51.518;-3.188;2023-08-31T13:19:25;5;5;
60816;PMS5003;51921;51.518;-3.188;2023-08-31T13:21:50;6;6;
60816;PMS5003;51921;51.518;-3.188;2023-08-31T13:24:16;5;5;
60816;PMS5003;51921;51.518;-3.188;2023-08-31T13:26:41;4;4;
60816;PMS5003;51921;51.518;-3.188;2023-08-31T13:29:06;4;4;
60816;PMS5003;51921;51.518;-3.188;2023-08-31T13:31:32;5;5;
60816;PMS5003;51921;51.518;-3.188;2023-08-31T13:33:57;6;6;
60816;PMS5003;51921;51.518;-3.188;2023-08-31T13:36:23;6;6;
60816;PMS5003;51921;51.518;-3.188;2023-08-31T13:38:48;5;5;
60816;PMS5003;51921;51.518;-3.188;2023-08-31T13:41:14;5;5;
60816;PMS5003;51921;51.518;-3.188;2023-08-31T13:43:39;6;6;
60816;PMS5003;51921;51.518;-3.188;2023-08-31T13:46:04;6;6;
60816;PMS5003;51921;51.518;-3.188;2023-08-31T13:48:30;6;6;
60816;PMS5003;51921;51.518;-3.188;2023-08-31T13:50:55;8;7;
60816;PMS5003;51921;51.518;-3.188;2023-08-31T13:53:21;5;5;
60816;PMS5003;51921;51.518;-3.188;2023-08-31T13:55:46;7;6;
60816;PMS5003;51921;51.518;-3.188;2023-08-31T13:58:12;6;6;
60816;PMS5003;51921;51.518;-3.188;2023-08-31T14:00:37;6;6;
60816;PMS5003;51921;51.518;-3.188;2023-08-31T14:03:04;4;4;
60816;PMS5003;51921;51.518;-3.188;2023-08-31T14:05:28;6;6;
60816;PMS5003;51921;51.518;-3.188;2023-08-31T14:07:54;3;3;
60816;PMS5003;51921;51.518;-3.188;2023-08-31T14:10:19;5;5;
60816;PMS5003;51921;51.518;-3.188;2023-08-31T14:12:46;8;8;
60816;PMS5003;51921;51.518;-3.188;2023-08-31T14:15:10;7;7;
60816;PMS5003;51921;51.518;-3.188;2023-08-31T14:17:35;9;9;
60816;PMS5003;51921;51.518;-3.188;2023-08-31T14:20:01;7;7;
60816;PMS5003;51921;51.518;-3.188;2023-08-31T14:22:26;6;6;
60816;PMS5003;51921;51.518;-3.188;2023-08-31T14:24:52;5;5;
60816;PMS5003;51921;51.518;-3.188;2023-08-31T14:27:17;12;12;
60816;PMS5003;51921;51.518;-3.188;2023-08-31T14:29:43;6;5;
60816;PMS5003;51921;51.518;-3.188;2023-08-31T14:32:08;7;6;
60816;PMS5003;51921;51.518;-3.188;2023-08-31T14:34:34;8;7;
60816;PMS5003;51921;51.518;-3.188;2023-08-31T14:36:59;6;5;
60816;PMS5003;51921;51.518;-3.188;2023-08-31T14:39:24;7;6;
60816;PMS5003;51921;51.518;-3.188;2023-08-31T14:41:50;6;5;
60816;PMS5003;51921;51.518;-3.188;2023-08-31T14:44:15;7;7;
60816;PMS5003;51921;51.518;-3.188;2023-08-31T14:46:41;6;6;
60816;PMS5003;51921;51.518;-3.188;2023-08-31T14:49:06;6;6;
60816;PMS5003;51921;51.518;-3.188;2023-08-31T14:51:32;8;8;
60816;PMS5003;51921;51.518;-3.188;2023-08-31T14:53:57;5;5;
60816;PMS5003;51921;51.518;-3.188;2023-08-31T14:56:23;11;10;
60816;PMS5003;51921;51.518;-3.188;2023-08-31T14:58:48;9;9;
60816;PMS5003;51921;51.518;-3.188;2023-08-31T15:01:13;12;9;
60816;PMS5003;51921;51.518;-3.188;2023-08-31T15:03:39;11;10;
60816;PMS5003;51921;51.518;-3.188;2023-08-31T15:06:04;8;8;
60816;PMS5003;51921;51.518;-3.188;2023-08-31T15:08:35;10;10;
60816;PMS5003;51921;51.518;-3.188;2023-08-31T15:10:56;10;10;
60816;PMS5003;51921;51.518;-3.188;2023-08-31T15:13:21;8;8;
60816;PMS5003;51921;51.518;-3.188;2023-08-31T15:15:47;9;9;
60816;PMS5003;51921;51.518;-3.188;2023-08-31T15:18:12;10;10;
60816;PMS5003;51921;51.518;-3.188;2023-08-31T15:20:39;9;9;
60816;PMS5003;51921;51.518;-3.188;2023-08-31T15:23:03;10;10;
60816;PMS5003;51921;51.518;-3.188;2023-08-31T15:25:28;10;10;
60816;PMS5003;51921;51.518;-3.188;2023-08-31T15:27:54;11;10;
60816;PMS5003;51921;51.518;-3.188;2023-08-31T15:30:19;10;10;
60816;PMS5003;51921;51.518;-3.188;2023-08-31T15:32:44;9;9;
60816;PMS5003;51921;51.518;-3.188;2023-08-31T15:35:10;11;10;
60816;PMS5003;51921;51.518;-3.188;2023-08-31T15:37:35;13;13;
60816;PMS5003;51921;51.518;-3.188;2023-08-31T15:40:01;11;11;
60816;PMS5003;51921;51.518;-3.188;2023-08-31T15:42:26;12;12;
60816;PMS5003;51921;51.518;-3.188;2023-08-31T15:44:52;11;11;
60816;PMS5003;51921;51.518;-3.188;2023-08-31T15:47:17;11;10;
60816;PMS5003;51921;51.518;-3.188;2023-08-31T15:49:43;12;12;
60816;PMS5003;51921;51.518;-3.188;2023-08-31T15:52:08;11;11;
60816;PMS5003;51921;51.518;-3.188;2023-08-31T15:54:33;12;11;
60816;PMS5003;51921;51.518;-3.188;2023-08-31T15:56:59;12;12;
60816;PMS5003;51921;51.518;-3.188;2023-08-31T15:59:25;11;10;
60816;PMS5003;51921;51.518;-3.188;2023-08-31T16:01:50;10;10;
60816;PMS5003;51921;51.518;-3.188;2023-08-31T16:04:15;12;11;
60816;PMS5003;51921;51.518;-3.188;2023-08-31T16:06:40;10;10;
60816;PMS5003;51921;51.518;-3.188;2023-08-31T16:09:06;11;10;
60816;PMS5003;51921;51.518;-3.188;2023-08-31T16:11:31;12;11;
60816;PMS5003;51921;51.518;-3.188;2023-08-31T16:13:57;11;11;
60816;PMS5003;51921;51.518;-3.188;2023-08-31T16:16:22;11;10;
60816;PMS5003;51921;51.518;-3.188;2023-08-31T16:18:47;11;11;
60816;PMS5003;51921;51.518;-3.188;2023-08-31T16:21:13;14;13;
60816;PMS5003;51921;51.518;-3.188;2023-08-31T16:23:38;12;11;
60816;PMS5003;51921;51.518;-3.188;2023-08-31T16:26:04;15;14;
60816;PMS5003;51921;51.518;-3.188;2023-08-31T16:28:29;12;12;
60816;PMS5003;51921;51.518;-3.188;2023-08-31T16:30:55;16;14;